createdAt,value
2022-10-25T00:02:08.217Z,43.5
2022-10-25T00:07:10.934Z,43.4
2022-10-25T00:12:12.834Z,41.8
2022-10-25T00:17:14.682Z,41.2
2022-10-25T00:22:16.821Z,42.7
2022-10-25T00:27:19.021Z,43.7
2022-10-25T00:32:20.910Z,44
2022-10-25T00:37:23.091Z,42.7
2022-10-25T00:42:25.246Z,47.3
2022-10-25T00:47:27.229Z,47.3
2022-10-25T00:52:29.463Z,44.9
2022-10-25T00:57:31.632Z,46.3
2022-10-25T01:02:33.627Z,42.9
2022-10-25T01:07:36.416Z,44.7
2022-10-25T01:12:38.656Z,45.1
2022-10-25T01:17:40.533Z,47.5
2022-10-25T01:22:43.009Z,49.7
2022-10-25T01:27:46.454Z,51.3
2022-10-25T01:32:48.750Z,45.2
2022-10-25T01:37:51.592Z,54
2022-10-25T01:42:56.590Z,50.3
2022-10-25T01:47:58.547Z,45.5
2022-10-25T01:53:00.684Z,47.5
2022-10-25T01:58:01.707Z,51.1
2022-10-25T02:03:03.779Z,53.9
2022-10-25T02:08:05.948Z,61.3
2022-10-25T02:13:07.933Z,63.7
2022-10-25T02:18:09.820Z,58.6
2022-10-25T02:23:11.920Z,64.8
2022-10-25T02:28:14.564Z,56.6
2022-10-25T02:33:16.594Z,53.7
2022-10-25T02:38:18.550Z,50.2
2022-10-25T02:43:20.512Z,50.6
2022-10-25T02:48:22.640Z,48.5
2022-10-25T02:53:24.563Z,50.6
2022-10-25T02:58:26.556Z,50.4
2022-10-25T03:03:28.481Z,98.1
2022-10-25T03:13:30.865Z,60.1
2022-10-25T03:18:32.727Z,60.8
2022-10-25T03:23:34.638Z,61
2022-10-25T03:28:36.698Z,59.7
2022-10-25T03:33:38.632Z,63
2022-10-25T03:38:40.535Z,61.7
2022-10-25T03:43:42.453Z,61.9
2022-10-25T03:48:46.587Z,59.5
2022-10-25T03:53:48.821Z,58.2
2022-10-25T03:58:51.001Z,58
2022-10-25T04:03:53.520Z,61
2022-10-25T04:08:55.431Z,63.2
2022-10-25T04:13:57.392Z,60.2
2022-10-25T04:18:59.283Z,61.7
2022-10-25T04:24:02.027Z,65.9
2022-10-25T04:29:06.690Z,68.2
2022-10-25T04:34:08.658Z,73.2
2022-10-25T04:39:11.366Z,73.2
2022-10-25T04:44:13.474Z,70.4
2022-10-25T04:49:15.554Z,69
2022-10-25T04:54:17.520Z,72.7
2022-10-25T04:59:19.826Z,66
2022-10-25T05:04:21.752Z,65.7
2022-10-25T05:09:23.877Z,59.1
2022-10-25T05:14:25.802Z,56.7
2022-10-25T05:19:27.643Z,53.9
2022-10-25T05:24:30.628Z,52.8
2022-10-25T05:29:32.763Z,52.6
2022-10-25T05:34:34.845Z,51.7
2022-10-25T05:39:36.871Z,56.2
2022-10-25T05:44:39.166Z,58.6
2022-10-25T05:49:41.251Z,57.2
2022-10-25T05:54:45.426Z,50.4
2022-10-25T05:59:47.388Z,47.3
2022-10-25T06:04:51.584Z,43.1
2022-10-25T06:09:54.710Z,41.9
2022-10-25T06:14:56.675Z,37
2022-10-25T06:19:58.551Z,33
2022-10-25T06:25:00.686Z,30
2022-10-25T06:30:02.963Z,26.1
2022-10-25T06:35:05.195Z,20.5
2022-10-25T06:40:07.123Z,17.6
2022-10-25T06:45:09.278Z,14.7
2022-10-25T06:50:11.246Z,14.9
2022-10-25T06:55:13.191Z,17
2022-10-25T07:00:15.832Z,16.3
2022-10-25T07:05:18.003Z,14.6
2022-10-25T07:10:19.935Z,17.5
2022-10-25T07:15:21.966Z,18
2022-10-25T07:20:24.041Z,19.1
2022-10-25T07:25:26.898Z,19.2
2022-10-25T07:30:29.236Z,18.2
2022-10-25T07:35:33.003Z,18.1
2022-10-25T07:40:31.754Z,15.2
2022-10-25T07:45:33.659Z,14.9
2022-10-25T07:50:35.585Z,12.5
2022-10-25T07:55:37.727Z,14.6
2022-10-25T08:00:39.768Z,14.5
2022-10-25T08:05:41.953Z,16.4
2022-10-25T08:10:44.106Z,16.3
2022-10-25T08:15:46.508Z,13.7
2022-10-25T08:21:04.331Z,13
2022-10-25T08:25:56.694Z,12.8
2022-10-25T08:30:58.754Z,11.8
2022-10-25T08:36:01.530Z,9.9
2022-10-25T08:41:03.485Z,10.1
2022-10-25T08:46:06.703Z,12.7
2022-10-25T08:51:08.617Z,10.9
2022-10-25T08:56:16.411Z,11.4
2022-10-25T09:01:19.978Z,11
2022-10-25T09:06:23.117Z,9
2022-10-25T09:11:24.990Z,10
2022-10-25T09:16:27.136Z,9.7
2022-10-25T09:21:29.056Z,8.6
2022-10-25T09:26:31.109Z,9.4
2022-10-25T09:31:33.317Z,11.6
2022-10-25T09:36:35.233Z,8.9
2022-10-25T09:41:37.251Z,8.9
2022-10-25T09:46:39.138Z,8.4
2022-10-25T09:51:41.121Z,8.5
2022-10-25T09:56:42.978Z,9.3
2022-10-25T10:01:48.916Z,9.6
2022-10-25T10:06:51.943Z,9.6
2022-10-25T10:11:53.919Z,8.9
2022-10-25T10:16:55.880Z,8.8
2022-10-25T10:21:57.799Z,9
2022-10-25T10:26:59.709Z,7.2
2022-10-25T10:32:01.615Z,8
2022-10-25T10:37:03.624Z,8.5
2022-10-25T10:42:05.575Z,9.3
2022-10-25T10:47:14.571Z,7.7
2022-10-25T10:52:16.518Z,9
2022-10-25T10:57:19.299Z,7.1
2022-10-25T11:02:21.701Z,8.2
2022-10-25T11:07:25.871Z,6.8
2022-10-25T11:12:27.976Z,5.7
2022-10-25T11:17:30.152Z,6
2022-10-25T11:22:32.886Z,5.5
2022-10-25T11:27:35.661Z,6.1
2022-10-25T11:32:37.730Z,7.1
2022-10-25T11:37:38.568Z,5.9
2022-10-25T11:42:40.805Z,6.3
2022-10-25T11:47:43.211Z,5.9
2022-10-25T11:52:46.002Z,5.4
2022-10-25T11:57:55.717Z,5.8
2022-10-25T12:02:57.817Z,5.3
2022-10-25T12:08:00.097Z,9.1
2022-10-25T12:13:02.170Z,5
2022-10-25T12:18:04.247Z,6.7
2022-10-25T12:23:06.315Z,8.9
2022-10-25T12:28:09.293Z,10.3
2022-10-25T12:33:11.235Z,5.7
2022-10-25T12:38:13.129Z,4.8
2022-10-25T12:43:15.001Z,5
2022-10-25T12:48:16.893Z,6
2022-10-25T12:53:18.743Z,4.5
2022-10-25T12:58:20.704Z,5.8
2022-10-25T13:03:22.856Z,5.2
2022-10-25T13:08:24.801Z,7
2022-10-25T13:13:26.740Z,4.7
2022-10-25T13:18:28.638Z,4
2022-10-25T13:23:30.621Z,4
2022-10-25T13:28:35.969Z,5.7
2022-10-25T13:33:38.642Z,3.8
2022-10-25T13:38:40.490Z,3.7
2022-10-25T13:43:42.501Z,4.5
2022-10-25T13:48:44.473Z,3.2
2022-10-25T13:53:46.504Z,6.5
2022-10-25T13:58:48.602Z,3.4
2022-10-25T14:03:50.657Z,3.8
2022-10-25T14:08:52.610Z,3.4
2022-10-25T14:13:54.546Z,3.4
2022-10-25T14:18:56.707Z,3.6
2022-10-25T14:23:58.659Z,2.9
2022-10-25T14:29:00.671Z,4.8
2022-10-25T14:34:02.686Z,3.8
2022-10-25T14:39:04.663Z,3.6
2022-10-25T14:44:06.563Z,5.6
2022-10-25T14:49:14.818Z,5.9
2022-10-25T14:54:16.721Z,6
2022-10-25T14:59:18.657Z,5.8
2022-10-25T15:04:20.605Z,20.4
2022-10-25T15:09:42.560Z,9
2022-10-25T15:14:25.020Z,4.4
2022-10-25T15:19:26.944Z,4.1
2022-10-25T15:24:28.915Z,2.8
2022-10-25T15:29:31.046Z,3.4
2022-10-25T15:34:33.101Z,4.1
2022-10-25T15:39:35.089Z,5
2022-10-25T15:44:37.981Z,8
2022-10-25T15:49:39.961Z,7.3
2022-10-25T15:54:41.864Z,6.5
2022-10-25T15:59:43.793Z,5.3
2022-10-25T16:04:45.791Z,9.6
2022-10-25T16:09:47.654Z,5.9
2022-10-25T16:14:49.544Z,6.3
2022-10-25T16:19:52.747Z,5.2
2022-10-25T16:24:54.837Z,6
2022-10-25T16:29:56.789Z,8.1
2022-10-25T16:34:59.126Z,10.1
2022-10-25T16:40:01.328Z,13.6
2022-10-25T16:45:03.383Z,15.8
2022-10-25T16:50:05.368Z,15.7
2022-10-25T16:55:07.268Z,12
2022-10-25T17:00:09.384Z,12.9
2022-10-25T17:05:11.358Z,11.4
2022-10-25T17:10:13.292Z,12
2022-10-25T17:15:15.368Z,14.4
2022-10-25T17:20:17.226Z,14.1
2022-10-25T17:25:19.069Z,16
2022-10-25T17:30:21.049Z,36.3
2022-10-25T17:35:25.643Z,17.5
2022-10-25T17:40:31.410Z,14.1
2022-10-25T17:45:33.505Z,14.5
2022-10-25T17:50:35.901Z,14.3
2022-10-25T17:55:40.952Z,13.5
2022-10-25T18:00:43.387Z,11.8
2022-10-25T18:05:45.470Z,11.4
2022-10-25T18:10:47.412Z,20.2
2022-10-25T18:15:49.353Z,15.2
2022-10-25T18:20:51.566Z,13.3
2022-10-25T18:25:52.370Z,16.7
2022-10-25T18:30:55.804Z,14.5
2022-10-25T18:35:57.749Z,14.5
2022-10-25T18:40:59.771Z,14.3
2022-10-25T18:46:01.845Z,18.2
2022-10-25T18:51:03.892Z,13.8
2022-10-25T18:56:05.786Z,12
2022-10-25T19:01:12.074Z,11.6
2022-10-25T19:06:16.008Z,11.5
2022-10-25T19:11:17.932Z,13.7
2022-10-25T19:16:19.840Z,12.1
2022-10-25T19:21:21.864Z,13.7
2022-10-25T19:26:24.170Z,20.1
2022-10-25T19:31:28.084Z,13.3
2022-10-25T19:36:30.669Z,12.7
2022-10-25T19:41:33.076Z,13.7
2022-10-25T19:46:35.111Z,13.9
2022-10-25T19:51:36.981Z,11
2022-10-25T19:56:38.896Z,10.1
2022-10-25T20:01:40.975Z,9.2
2022-10-25T20:06:43.615Z,8.9
2022-10-25T20:11:44.470Z,8.3
2022-10-25T20:16:46.460Z,8.1
2022-10-25T20:21:48.405Z,7.8
2022-10-25T20:26:50.285Z,7.9
2022-10-25T20:31:52.202Z,10.9
2022-10-25T20:36:54.125Z,8.9
2022-10-25T20:41:57.000Z,7.7
2022-10-25T20:46:58.924Z,6.9
2022-10-25T20:52:00.965Z,15
2022-10-25T20:57:02.960Z,8
2022-10-25T21:02:05.176Z,8
2022-10-25T21:07:06.070Z,7.7
2022-10-25T21:12:08.300Z,7.8
2022-10-25T21:17:10.547Z,8.3
2022-10-25T21:22:12.443Z,8.1
2022-10-25T21:27:14.308Z,8.6
2022-10-25T21:32:16.549Z,9.6
2022-10-25T21:37:18.658Z,8.3
2022-10-25T21:42:20.663Z,7.7
2022-10-25T21:47:22.855Z,8.9
2022-10-25T21:52:24.801Z,8
2022-10-25T21:57:26.743Z,10.1
2022-10-25T22:02:28.843Z,9.3
2022-10-25T22:07:32.612Z,10.7
2022-10-25T22:12:34.792Z,8.5
2022-10-25T22:17:36.841Z,9.2
2022-10-25T22:22:38.839Z,11.7
2022-10-25T22:27:41.100Z,11.8
2022-10-25T22:32:43.422Z,9.2
2022-10-25T22:37:45.732Z,11.6
2022-10-25T22:42:49.399Z,11.5
2022-10-25T22:47:51.497Z,10.8
2022-10-25T22:52:53.724Z,11.3
2022-10-25T22:57:55.684Z,12.4
2022-10-25T23:02:57.782Z,12.4
2022-10-25T23:08:00.308Z,14.5
2022-10-25T23:13:02.649Z,14.3
2022-10-25T23:18:04.824Z,13.2
2022-10-25T23:23:06.743Z,15.8
2022-10-25T23:28:08.879Z,14.3
2022-10-25T23:33:11.085Z,15
2022-10-25T23:38:12.956Z,14
2022-10-25T23:43:14.930Z,14.7
2022-10-25T23:48:16.966Z,15.6
2022-10-25T23:53:18.850Z,15.4
2022-10-25T23:58:20.802Z,15.1
